Briefing drone pour Beaurieux

Rechercher une autre localisation

Conditions de vol :


Nous sommes le : Jeudi 17 juin 2021
Il est 22:53 UTC (00:53 LT)

Lever de soleil : 03:12 UTC (05:12 LT)
Coucher de soleil : 20:19 UTC (22:19 LT)

Météo

L'essentiel des conditions de vol

VIGILANCE MÉTÉO FRANCE - Aisne (02)
Vigilance Jaune : Orages
CARTE TEMSI
CARTES DES FRONTS
METAR de LFQA
LFQA 162230Z AUTO 09004KT CAVOK 20/17 Q1010

Date d'émission: 16/06/2021
Heure d'émission: 22:30 UTC
Vent: 090° pour 4 KT (7 km/h)
Visibilité horizontale: > 10 km
Plafond : Plafond et visibilité OK (CAVOK)
Température: 20 °C
Point de rosée: 17 °C
Humidité: 83%
Pression (QNH): 1010 hPa
Prévision 24h pour Reims (17 km)
Vent : 103° pour 2 KT (8 km/h)
Temperature Maxi: 26 °C
Temperature Min: 26 °C
Humidité : 78%
Condition : Partiellement nuageux



Warning: count(): Parameter must be an array or an object that implements Countable in /homepages/6/d509196549/htdocs/droneoxygene/briefing.php on line 743
WEBCAM POUR BEAURIEUX

Réglementation

Voler en sécurité

CARTES AERONAUTIQUE 1/500.000
CARTES VAC (LFQA)
SUP AIP




Chargement des AIP...
NOTAM (BEAURIEUX + Terrain à proximité / FIR )




Chargement des NOTAMS...
CONTACT PREFECTURE 02


Avertissement : Les données mises à disposition sont indicatives. Oxygène Drone ne pourra être tenu responsable de dégâts causés aux biens et aux personnes.